Airport View

Enter AWOS ICAO identifier for current METAR.

ex. KFNL

KCNO 192053Z 26008KT 10SM CLR 32/14 A2993 RMK AO2 SLP131 T03170144 56016 $

19 Aug 2019 21:27

Phone: 909-393-5823

Other Area AWOS: KAJO - KONT - KRAL - KPOC

KONT 191720Z 1918/2024 VRB04KT 6SM HZ SKC FM191900 25011KT P6SM SKC FM200500 VRB04KT P6SM SKC FM201200 VRB04KT 5SM HZ SKC FM201900 24011KT P6SM SKC